Time;durP1;ratioP1;P1;durP2;ratioP2;P2;SDS_P1;SDS_P2;PMS_P1;PMS_P2;Temp;Humidity;BMP_temperature;BMP_pressure;BME280_temperature;BME280_humidity;BME280_pressure;Samples;Min_cycle;Max_cycle;Signal;HPM_P1;HPM_P2
2023/03/02 00:01:51;;;;;;;10.98;7.97;;;;;;;7.52;66.49;100111.88;4973947;28;20029;-91
2023/03/02 00:04:21;;;;;;;14.57;8.52;;;;;;;7.47;67.11;100090.47;4974106;28;20049;-91
2023/03/02 00:06:47;;;;;;;12.95;8.30;;;;;;;6.68;66.71;99972.66;4974894;28;20041;-90
2023/03/02 00:09:13;;;;;;;10.00;7.63;;;;;;;7.54;66.86;100126.53;4974854;28;20117;-90
2023/03/02 00:11:39;;;;;;;10.88;8.00;;;;;;;6.61;66.69;99976.84;4974965;28;20061;-91
2023/03/02 00:14:05;;;;;;;15.68;9.27;;;;;;;6.94;67.08;100022.75;4974850;28;20504;-91
2023/03/02 00:16:30;;;;;;;13.13;8.63;;;;;;;6.61;66.74;99966.34;4974693;28;20093;-90
2023/03/02 00:18:56;;;;;;;14.95;9.85;;;;;;;6.53;67.29;99960.97;4974600;28;20523;-90
2023/03/02 00:21:23;;;;;;;14.98;10.30;;;;;;;7.13;67.17;100067.34;4974665;28;20034;-90
2023/03/02 00:23:49;;;;;;;12.98;8.65;;;;;;;6.84;66.84;99993.94;4973927;28;20535;-90
2023/03/02 00:26:14;;;;;;;11.60;9.20;;;;;;;7.25;66.97;100054.84;4974697;28;20031;-90
2023/03/02 00:28:40;;;;;;;14.82;9.00;;;;;;;7.26;66.86;100062.59;4974558;28;20496;-90
2023/03/02 00:31:05;;;;;;;14.35;9.90;;;;;;;7.43;66.88;100084.66;4973195;28;20030;-90
2023/03/02 00:33:32;;;;;;;13.15;9.52;;;;;;;7.60;66.86;100125.94;4970774;28;20030;-90
2023/03/02 00:35:57;;;;;;;13.32;8.88;;;;;;;7.13;66.74;100030.56;4972830;28;20484;-90
2023/03/02 00:38:23;;;;;;;13.18;9.00;;;;;;;7.71;67.24;100138.06;4973653;28;20030;-91
2023/03/02 00:40:49;;;;;;;14.57;9.32;;;;;;;7.71;66.98;100122.31;4974252;28;20027;-90
2023/03/02 00:43:15;;;;;;;14.35;8.90;;;;;;;7.40;67.51;100071.78;4974090;28;20419;-91
2023/03/02 00:45:41;;;;;;;17.60;8.80;;;;;;;7.19;67.14;100060.69;4974209;28;20035;-91
2023/03/02 00:48:07;;;;;;;15.18;9.15;;;;;;;6.95;67.64;99992.91;4974069;28;20037;-90
2023/03/02 00:50:33;;;;;;;16.23;9.65;;;;;;;5.35;67.18;99738.53;4974154;28;20026;-91
2023/03/02 00:52:59;;;;;;;13.65;9.75;;;;;;;7.53;67.53;100080.19;4974131;28;20026;-90
2023/03/02 00:55:24;;;;;;;14.57;10.13;;;;;;;6.96;67.49;100021.66;4973985;28;20496;-90
2023/03/02 00:57:56;;;;;;;12.57;9.43;;;;;;;7.56;67.80;100082.53;4973988;28;20034;-90
2023/03/02 01:00:22;;;;;;;13.20;10.07;;;;;;;7.83;67.33;100120.31;4988936;28;20026;-90
2023/03/02 01:02:48;;;;;;;14.80;10.15;;;;;;;7.07;67.26;99988.31;4973921;28;20571;-90
2023/03/02 01:05:14;;;;;;;14.77;10.95;;;;;;;7.32;67.44;100061.19;4973966;28;20022;-90
2023/03/02 01:07:39;;;;;;;17.45;11.18;;;;;;;7.31;68.05;100060.34;4972605;28;20031;-90
2023/03/02 01:10:05;;;;;;;16.13;12.20;;;;;;;7.72;67.67;100194.94;4973545;28;20489;-90
2023/03/02 01:12:32;;;;;;;20.20;12.85;;;;;;;7.04;67.96;100023.56;4972124;28;20018;-90
2023/03/02 01:14:57;;;;;;;20.67;14.85;;;;;;;7.42;67.96;100087.41;4973512;28;20030;-90
2023/03/02 01:17:24;;;;;;;25.75;16.10;;;;;;;7.20;68.07;100042.16;4971408;28;20526;-91
2023/03/02 01:19:50;;;;;;;24.73;17.27;;;;;;;7.77;68.34;100123.53;4973543;28;20037;-90
2023/03/02 01:22:16;;;;;;;31.15;19.23;;;;;;;7.56;67.98;100098.31;4988108;28;20046;-90
2023/03/02 01:24:42;;;;;;;31.83;18.17;;;;;;;7.66;68.32;100119.28;4973385;28;20038;-91
2023/03/02 01:27:08;;;;;;;31.92;21.27;;;;;;;7.06;67.70;100005.03;4972259;28;20019;-90
2023/03/02 01:29:33;;;;;;;32.40;20.67;;;;;;;7.01;67.82;100008.91;4973767;28;20037;-90
2023/03/02 01:31:59;;;;;;;33.92;21.73;;;;;;;7.60;68.39;100119.88;4973554;28;20086;-91
2023/03/02 01:34:24;;;;;;;33.78;21.48;;;;;;;7.11;68.10;100014.13;4988232;28;20463;-90
2023/03/02 01:36:49;;;;;;;39.70;23.20;;;;;;;7.36;68.16;100051.22;4973155;28;20031;-91
2023/03/02 01:39:15;;;;;;;44.17;25.00;;;;;;;7.28;68.39;100034.38;4973490;28;20030;-90
2023/03/02 01:41:45;;;;;;;38.92;21.08;;;;;;;7.33;67.90;100028.69;4971876;28;20031;-90
2023/03/02 01:44:38;;;;;;;40.92;22.42;;;;;;;7.78;68.01;100106.78;4973330;28;20054;-90
2023/03/02 01:47:13;;;;;;;44.42;23.98;;;;;;;7.32;68.42;100058.56;4988374;28;20526;-90
2023/03/02 01:49:45;;;;;;;45.50;23.98;;;;;;;6.93;68.00;99977.31;4973140;28;20030;-91
2023/03/02 01:52:11;;;;;;;;;;;;;;;7.59;69.01;100115.59;4973573;28;20019;-91
2023/03/02 01:54:39;;;;;;;41.38;21.38;;;;;;;7.36;68.42;100059.91;4972860;28;19916;-89
2023/03/02 01:57:06;;;;;;;45.15;22.02;;;;;;;7.73;68.82;100106.38;4987632;28;20467;-90
2023/03/02 01:59:33;;;;;;;43.03;20.98;;;;;;;7.18;68.47;100015.22;4972833;28;20097;-90
2023/03/02 02:02:02;;;;;;;43.58;21.70;;;;;;;7.21;68.65;100027.22;4972908;28;20026;-90
2023/03/02 02:04:30;;;;;;;38.40;21.67;;;;;;;7.74;68.32;100134.31;4971793;28;20030;-91
2023/03/02 02:07:01;;;;;;;40.90;21.70;;;;;;;7.74;68.82;100106.25;4971477;28;20030;-90
2023/03/02 02:09:30;;;;;;;43.38;20.90;;;;;;;7.16;68.41;100045.22;4973134;28;20018;-91
2023/03/02 02:11:56;;;;;;;40.88;22.45;;;;;;;6.92;68.63;99996.66;4972105;28;20504;-90
2023/03/02 02:14:22;;;;;;;44.70;23.42;;;;;;;6.33;68.57;99905.13;4972960;28;20061;-91
2023/03/02 02:16:49;;;;;;;46.58;22.50;;;;;;;6.69;68.79;99975.19;4971680;28;20026;-90
2023/03/02 02:19:23;;;;;;;44.92;21.73;;;;;;;6.33;68.63;99897.25;4972945;28;20042;-91
2023/03/02 02:21:49;;;;;;;45.97;21.40;;;;;;;6.97;68.89;100010.19;4972396;28;20126;-90
2023/03/02 02:24:27;;;;;;;47.15;23.42;;;;;;;6.37;68.54;99896.81;4972708;28;20110;-90
2023/03/02 02:26:55;;;;;;;47.70;23.33;;;;;;;7.63;69.01;100109.88;4971381;28;20050;-91
2023/03/02 02:29:29;;;;;;;48.80;23.10;;;;;;;7.45;69.02;100102.91;4972564;28;20030;-91
2023/03/02 02:32:18;;;;;;;45.42;23.23;;;;;;;7.60;69.10;100114.59;4972916;28;20038;-91
2023/03/02 02:34:49;;;;;;;42.70;23.52;;;;;;;7.20;69.20;100052.66;4972713;28;20097;-90
2023/03/02 02:37:38;;;;;;;46.50;23.50;;;;;;;7.61;68.75;100106.59;4972679;28;20038;-90
2023/03/02 02:40:08;;;;;;;48.33;23.08;;;;;;;7.65;68.76;100120.25;4971385;28;21144;-90
2023/03/02 02:42:39;;;;;;;43.42;22.30;;;;;;;7.53;69.00;100119.63;4972434;28;20476;-89
2023/03/02 02:45:16;;;;;;;38.28;22.30;;;;;;;7.08;69.22;100058.22;4972502;28;20423;-89
2023/03/02 02:47:42;;;;;;;40.28;21.83;;;;;;;7.16;69.43;100072.31;4972488;28;20094;-89
2023/03/02 02:50:17;;;;;;;42.75;21.25;;;;;;;7.26;69.52;100053.88;4972406;28;20518;-90
2023/03/02 02:52:45;;;;;;;50.28;25.77;;;;;;;7.14;69.58;100032.22;4972439;28;20480;-91
2023/03/02 02:55:15;;;;;;;46.33;24.13;;;;;;;7.29;69.20;100066.72;4972476;28;20030;-91
2023/03/02 02:57:41;;;;;;;41.67;23.83;;;;;;;7.17;69.49;100057.38;4972967;28;20026;-91
2023/03/02 03:00:17;;;;;;;44.78;22.52;;;;;;;7.06;69.08;100020.78;4976023;28;20026;-89
2023/03/02 03:02:46;;;;;;;45.60;24.38;;;;;;;7.00;69.23;99999.38;4974803;28;20053;-89
2023/03/02 03:05:15;;;;;;;49.28;22.90;;;;;;;7.59;69.50;100105.91;4975463;28;20062;-90
2023/03/02 03:07:40;;;;;;;33.28;19.80;;;;;;;6.88;69.19;99994.47;4974591;28;20121;-91
2023/03/02 03:10:28;;;;;;;39.00;21.23;;;;;;;7.67;69.56;100120.13;4976068;28;20526;-90
2023/03/02 03:12:54;;;;;;;47.38;24.20;;;;;;;7.12;69.13;100021.03;4975956;28;20038;-90
2023/03/02 03:15:20;;;;;;;42.70;23.38;;;;;;;7.67;69.50;100118.31;4976010;28;20524;-90
2023/03/02 03:17:56;;;;;;;38.35;20.92;;;;;;;7.34;68.89;100075.00;4975668;28;20519;-90
2023/03/02 03:20:23;;;;;;;36.20;20.27;;;;;;;7.67;69.59;100120.13;4975699;28;20037;-90
2023/03/02 03:22:49;;;;;;;40.97;22.13;;;;;;;7.29;69.28;100064.94;4975712;28;20509;-91
2023/03/02 03:25:14;;;;;;;41.05;20.80;;;;;;;7.19;69.09;100055.44;4974583;28;20089;-90
2023/03/02 03:27:41;;;;;;;34.92;20.25;;;;;;;6.96;68.99;100000.66;4990542;28;20077;-90
2023/03/02 03:30:09;;;;;;;42.95;21.13;;;;;;;7.68;68.78;100106.81;4974399;28;20034;-91
2023/03/02 03:32:35;;;;;;;40.03;20.25;;;;;;;7.67;69.54;100102.53;4975397;28;20023;-90
2023/03/02 03:35:01;;;;;;;43.65;22.10;;;;;;;6.83;69.17;99968.66;4975561;28;20027;-90
2023/03/02 03:37:26;;;;;;;39.78;21.30;;;;;;;7.43;69.00;100066.28;4990529;28;20022;-90
2023/03/02 03:39:52;;;;;;;39.17;21.80;;;;;;;6.85;69.49;99977.19;4975568;28;20038;-90
2023/03/02 03:42:17;;;;;;;40.10;21.63;;;;;;;6.92;68.91;99991.41;4975479;28;20031;-91
2023/03/02 03:44:43;;;;;;;39.85;21.23;;;;;;;7.28;69.33;100054.56;4990364;28;20027;-91
2023/03/02 03:47:08;;;;;;;37.97;20.08;;;;;;;7.47;69.21;100070.28;4990510;28;20027;-90
2023/03/02 03:49:34;;;;;;;33.10;19.25;;;;;;;7.40;69.09;100084.94;4990415;28;20046;-90
2023/03/02 03:52:00;;;;;;;37.78;20.35;;;;;;;6.93;68.95;99979.94;4973842;28;20023;-90
2023/03/02 03:54:25;;;;;;;29.98;19.05;;;;;;;7.48;68.96;100082.44;4975255;28;20101;-90
2023/03/02 03:56:51;;;;;;;33.35;20.00;;;;;;;6.73;69.02;100001.13;4990012;28;20034;-90
2023/03/02 03:59:22;;;;;;;33.65;19.42;;;;;;;7.64;69.54;100102.84;4973247;28;20030;-90
2023/03/02 04:01:52;;;;;;;32.28;18.77;;;;;;;7.25;69.16;100060.94;4974738;28;20034;-90
2023/03/02 04:04:25;;;;;;;36.42;19.85;;;;;;;7.64;69.44;100111.53;4975145;28;20038;-91
2023/03/02 04:06:51;;;;;;;32.13;19.13;;;;;;;7.37;69.53;100082.59;4974004;28;20070;-90
2023/03/02 04:09:19;;;;;;;33.08;19.50;;;;;;;6.92;69.39;99996.66;4973613;28;20484;-90
2023/03/02 04:11:47;;;;;;;33.33;18.15;;;;;;;7.66;68.84;100124.53;4974621;28;20042;-90
2023/03/02 04:14:13;;;;;;;36.20;18.92;;;;;;;7.69;69.49;100105.03;4974570;28;20037;-90
2023/03/02 04:16:40;;;;;;;33.20;18.67;;;;;;;6.68;69.00;99942.00;4974750;28;20027;-90
2023/03/02 04:19:08;;;;;;;29.05;17.90;;;;;;;7.71;69.40;100098.66;4974910;28;20117;-90
2023/03/02 04:21:36;;;;;;;31.95;18.45;;;;;;;6.80;68.90;99949.75;4973161;28;20404;-90
2023/03/02 04:24:01;;;;;;;31.48;19.10;;;;;;;7.73;68.72;100096.69;4989658;28;20026;-90
2023/03/02 04:26:26;;;;;;;34.60;19.70;;;;;;;7.71;69.03;100113.59;4989502;28;20033;-91
2023/03/02 04:28:52;;;;;;;30.90;18.48;;;;;;;7.33;69.50;100053.16;4974491;28;20023;-90
2023/03/02 04:31:17;;;;;;;31.85;18.55;;;;;;;7.24;69.07;100024.31;4973154;28;20105;-90
2023/03/02 04:33:42;;;;;;;34.83;18.92;;;;;;;6.77;69.39;99947.41;4973082;28;20081;-90
2023/03/02 04:36:08;;;;;;;30.20;19.92;;;;;;;6.96;69.17;99981.44;4974769;28;20026;-90
2023/03/02 04:38:33;;;;;;;32.03;17.38;;;;;;;7.30;69.11;100065.75;4989478;28;20488;-91
2023/03/02 04:40:59;;;;;;;32.47;19.15;;;;;;;6.95;69.38;100006.88;4974296;28;20037;-90
2023/03/02 04:43:25;;;;;;;30.30;18.48;;;;;;;7.59;69.64;100120.84;4974200;28;20023;-90
2023/03/02 04:45:51;;;;;;;29.27;17.45;;;;;;;7.63;69.36;100116.94;4973072;28;20515;-91
2023/03/02 04:48:17;;;;;;;31.90;18.33;;;;;;;7.59;69.72;100105.91;4974235;28;20035;-90
2023/03/02 04:50:43;;;;;;;34.47;19.75;;;;;;;7.15;69.40;100043.56;4974199;28;20751;-90
2023/03/02 04:53:09;;;;;;;31.80;18.95;;;;;;;6.81;69.36;99982.88;4974189;28;20031;-91
2023/03/02 04:55:34;;;;;;;38.55;21.13;;;;;;;7.13;69.21;100035.81;4973016;28;20023;-90
2023/03/02 04:57:59;;;;;;;33.67;20.65;;;;;;;7.09;69.51;100039.72;4973840;28;20042;-90
2023/03/02 05:00:27;;;;;;;29.98;18.63;;;;;;;6.97;69.64;100031.19;4973908;28;20027;-90
2023/03/02 05:02:53;;;;;;;32.90;19.60;;;;;;;7.57;69.23;100107.00;4974042;28;20085;-91
2023/03/02 05:05:22;;;;;;;39.50;22.17;;;;;;;7.24;69.69;100061.91;4973904;28;20038;-90
2023/03/02 05:07:48;;;;;;;35.22;22.10;;;;;;;7.17;69.80;100060.81;4972551;28;20038;-91
2023/03/02 05:10:15;;;;;;;35.90;20.52;;;;;;;7.57;69.33;100114.91;4973525;28;20031;-90
2023/03/02 05:15:29;;;;;;;33.90;21.52;;;;;;;7.40;69.80;100084.09;4973837;28;20432;-91
2023/03/02 05:17:55;;;;;;;34.25;21.77;;;;;;;7.39;69.39;100093.78;4973665;28;20030;-90
2023/03/02 05:20:26;;;;;;;35.88;22.17;;;;;;;7.11;70.06;100061.41;4973356;28;20038;-91
2023/03/02 05:22:55;;;;;;;38.03;22.70;;;;;;;5.91;69.06;99846.97;4973476;28;20050;-91
2023/03/02 05:25:21;;;;;;;41.53;23.67;;;;;;;7.32;69.77;100084.81;4973720;28;20022;-91
2023/03/02 05:27:47;;;;;;;37.72;22.23;;;;;;;7.40;69.29;100091.97;4973568;28;20411;-92
2023/03/02 05:30:13;;;;;;;41.05;22.75;;;;;;;7.14;69.53;100039.28;4972185;28;20023;-91
2023/03/02 05:32:39;;;;;;;47.25;25.95;;;;;;;7.25;69.30;100067.97;4972074;28;20470;-91
2023/03/02 05:35:05;;;;;;;46.47;24.92;;;;;;;7.33;69.43;100089.94;4973356;28;20015;-90
2023/03/02 05:37:30;;;;;;;43.35;26.33;;;;;;;6.90;68.90;100003.03;4972140;28;20511;-91
2023/03/02 05:39:55;;;;;;;42.92;26.35;;;;;;;7.31;68.85;100093.66;4973291;28;20034;-91
2023/03/02 05:42:21;;;;;;;46.10;25.25;;;;;;;7.10;69.01;100058.91;4973025;28;20031;-89
2023/03/02 05:44:47;;;;;;;43.65;24.83;;;;;;;6.60;69.15;99946.31;4972880;28;20113;-91
2023/03/02 05:47:12;;;;;;;46.60;27.30;;;;;;;6.86;68.66;99993.78;4971865;28;20035;-90
2023/03/02 05:49:37;;;;;;;41.95;25.33;;;;;;;7.47;69.23;100096.53;4971853;28;20035;-91
2023/03/02 05:52:03;;;;;;;45.45;27.55;;;;;;;6.89;69.20;100015.31;4973021;28;20109;-91
2023/03/02 05:54:28;;;;;;;44.55;26.45;;;;;;;7.03;69.24;100047.31;4976571;28;20480;-91
2023/03/02 05:56:54;;;;;;;44.05;26.08;;;;;;;6.38;68.77;99969.28;5010210;28;20061;-91
2023/03/02 05:59:19;;;;;;;50.05;29.80;;;;;;;7.37;68.96;100100.16;5009080;28;20021;-91
2023/03/02 06:01:44;;;;;;;51.35;29.88;;;;;;;7.12;68.53;100064.84;5011848;28;20034;-91
2023/03/02 06:04:10;;;;;;;52.10;28.00;;;;;;;6.94;68.93;100041.13;4995601;28;20709;-91
2023/03/02 06:06:35;;;;;;;55.67;28.88;;;;;;;5.83;69.16;99850.25;4992058;28;20026;-91
2023/03/02 06:09:01;;;;;;;51.80;29.20;;;;;;;6.96;68.67;100068.06;4990716;28;20023;-90
2023/03/02 06:11:27;;;;;;;53.47;28.55;;;;;;;7.33;68.99;100105.69;4992264;28;20038;-91
2023/03/02 06:13:52;;;;;;;51.63;29.65;;;;;;;7.72;68.91;100179.16;4992339;28;20105;-91
2023/03/02 06:16:17;;;;;;;56.60;30.90;;;;;;;6.15;69.25;99949.59;4992161;28;20040;-91
2023/03/02 06:18:43;;;;;;;51.40;29.33;;;;;;;6.74;69.16;100006.25;4992098;28;20033;-90
2023/03/02 06:21:08;;;;;;;56.95;33.97;;;;;;;6.82;68.83;100055.41;4992229;28;20125;-91
2023/03/02 06:23:34;;;;;;;56.17;32.03;;;;;;;7.11;69.14;100089.44;5005056;28;20042;-91
2023/03/02 06:25:59;;;;;;;54.38;33.00;;;;;;;7.22;69.28;100105.03;5002927;28;20049;-90
2023/03/02 06:28:25;;;;;;;51.78;29.58;;;;;;;7.05;68.92;100090.03;4992958;28;20034;-92
2023/03/02 06:30:51;;;;;;;52.28;31.42;;;;;;;6.98;68.62;100061.72;5001980;28;20041;-91
2023/03/02 06:33:18;;;;;;;52.55;31.50;;;;;;;7.53;68.71;100164.28;5014597;28;20068;-90
2023/03/02 06:35:44;;;;;;;44.88;29.45;;;;;;;7.54;69.31;100159.84;5015534;28;20029;-90
2023/03/02 06:38:10;;;;;;;44.30;28.48;;;;;;;6.92;69.06;100058.81;5015345;28;20100;-90
2023/03/02 06:40:35;;;;;;;42.78;26.27;;;;;;;7.13;68.66;100108.53;5011506;28;20038;-88
2023/03/02 06:43:01;;;;;;;48.33;28.60;;;;;;;7.07;69.02;100074.94;5013090;28;20044;-89
2023/03/02 06:45:28;;;;;;;45.55;28.90;;;;;;;7.58;68.83;100156.78;5015450;28;20026;-90
2023/03/02 06:47:53;;;;;;;49.50;32.38;;;;;;;6.65;68.85;100012.31;5015055;28;20033;-90
2023/03/02 06:50:19;;;;;;;42.05;27.58;;;;;;;7.53;69.36;100161.66;5015107;28;20030;-90
2023/03/02 06:52:44;;;;;;;50.78;31.50;;;;;;;6.50;68.91;99990.94;5014992;28;20041;-89
2023/03/02 06:55:10;;;;;;;46.45;29.60;;;;;;;7.49;69.10;100147.16;5015138;28;20041;-90
2023/03/02 06:57:35;;;;;;;43.58;29.05;;;;;;;7.62;68.53;100168.69;5013396;28;20041;-90
2023/03/02 07:00:27;;;;;;;58.30;35.10;;;;;;;6.77;68.85;100018.25;5015234;28;20032;-91
2023/03/02 07:02:51;;;;;;;43.22;28.27;;;;;;;7.67;68.69;100168.25;4975421;28;20042;-90
2023/03/02 07:05:17;;;;;;;41.58;29.73;;;;;;;7.25;68.39;100102.13;4974839;28;20026;-91
2023/03/02 07:07:43;;;;;;;35.80;26.38;;;;;;;7.30;68.47;100108.59;4975993;28;20034;-90
2023/03/02 07:10:11;;;;;;;36.88;26.05;;;;;;;7.77;68.38;100190.06;4978393;28;20048;-89
2023/03/02 07:12:36;;;;;;;35.80;26.60;;;;;;;7.75;68.46;100181.50;4994269;28;20026;-89
2023/03/02 07:15:02;;;;;;;34.97;24.33;;;;;;;7.18;68.37;100074.78;4995153;28;20479;-91
2023/03/02 07:17:28;;;;;;;36.55;25.35;;;;;;;7.70;68.00;100172.38;4995339;28;20030;-89
2023/03/02 07:19:53;;;;;;;38.45;28.48;;;;;;;7.53;68.36;100138.00;4993682;28;20483;-91
2023/03/02 07:22:19;;;;;;;39.08;28.17;;;;;;;7.53;68.72;100151.16;4993451;28;20042;-90
2023/03/02 07:24:44;;;;;;;42.28;29.42;;;;;;;6.86;68.51;100031.34;4995212;28;20160;-90
2023/03/02 07:27:09;;;;;;;43.53;29.30;;;;;;;7.20;68.45;100134.06;4994086;28;20037;-90
2023/03/02 07:29:35;;;;;;;40.22;28.65;;;;;;;6.85;68.33;100026.25;5004659;28;20120;-90
2023/03/02 07:32:00;;;;;;;39.47;27.20;;;;;;;7.76;68.42;100180.53;5013313;28;20487;-90
2023/03/02 07:34:26;;;;;;;34.42;26.23;;;;;;;7.45;68.28;100144.94;5014247;28;20026;-91
2023/03/02 07:36:52;;;;;;;38.10;28.65;;;;;;;7.00;68.53;100048.44;5010491;28;20462;-90
2023/03/02 07:39:18;;;;;;;41.22;27.77;;;;;;;7.49;68.74;100117.41;5010547;28;20025;-91
2023/03/02 07:41:43;;;;;;;42.33;28.63;;;;;;;7.08;68.87;100043.31;5013912;28;20030;-88
2023/03/02 07:44:09;;;;;;;42.20;28.30;;;;;;;7.75;68.44;100152.59;5013803;28;20040;-90
2023/03/02 07:46:34;;;;;;;39.50;26.38;;;;;;;7.84;68.38;100178.00;5014024;28;20029;-90
2023/03/02 07:49:00;;;;;;;41.22;27.55;;;;;;;7.17;67.93;100060.00;5012819;28;20426;-90
2023/03/02 07:51:25;;;;;;;44.35;30.70;;;;;;;7.80;68.03;100166.13;5014202;28;20399;-90
2023/03/02 07:53:51;;;;;;;39.92;28.58;;;;;;;7.21;68.38;100079.75;5013969;28;20029;-90
2023/03/02 07:56:17;;;;;;;41.63;27.15;;;;;;;7.00;68.50;100049.28;5013974;28;20029;-90
2023/03/02 07:58:42;;;;;;;40.65;27.58;;;;;;;7.45;67.91;100114.25;5013906;28;20537;-90
2023/03/02 08:01:08;;;;;;;41.63;28.77;;;;;;;7.55;68.02;100120.31;5013872;28;20112;-90
2023/03/02 08:03:34;;;;;;;42.85;30.08;;;;;;;7.38;67.79;100109.69;5012515;28;20048;-90
2023/03/02 08:06:08;;;;;;;41.28;26.80;;;;;;;7.91;68.18;100173.81;5013835;28;20471;-91
2023/03/02 08:08:34;;;;;;;42.63;28.20;;;;;;;6.99;67.63;100058.13;5012490;28;20483;-90
2023/03/02 08:11:11;;;;;;;51.88;33.70;;;;;;;7.91;68.14;100170.34;5013486;28;20172;-90
2023/03/02 08:13:36;;;;;;;53.47;34.33;;;;;;;7.06;68.09;100020.78;4983745;28;20275;-90
2023/03/02 08:16:05;;;;;;;56.50;36.55;;;;;;;7.48;67.55;100107.88;4978530;28;20112;-90
2023/03/02 08:18:31;;;;;;;62.63;38.97;;;;;;;7.61;67.77;100098.69;4978932;28;20329;-90
2023/03/02 08:20:56;;;;;;;56.53;36.30;;;;;;;6.57;67.80;99933.50;4982837;28;20061;-90
2023/03/02 08:23:22;;;;;;;51.72;33.00;;;;;;;8.07;67.89;100159.22;4979349;28;20102;-87
2023/03/02 08:25:48;;;;;;;60.58;37.28;;;;;;;8.09;67.43;100163.34;4980183;28;20038;-90
2023/03/02 08:28:14;;;;;;;52.97;35.00;;;;;;;7.93;67.69;100144.75;4982144;28;20105;-90
2023/03/02 08:30:39;;;;;;;55.55;35.28;;;;;;;7.81;67.78;100120.44;4982447;28;20026;-90
2023/03/02 08:33:05;;;;;;;50.58;32.83;;;;;;;7.49;67.47;100062.25;4993410;28;20019;-90
2023/03/02 08:35:30;;;;;;;51.33;34.75;;;;;;;7.58;67.70;100109.50;4992017;28;20038;-88
2023/03/02 08:37:58;;;;;;;43.63;29.95;;;;;;;8.19;67.66;100169.41;4976927;28;20026;-90
2023/03/02 08:40:24;;;;;;;38.78;26.40;;;;;;;7.56;67.89;100069.41;4974910;28;20030;-88
2023/03/02 08:42:55;;;;;;;41.35;29.02;;;;;;;7.89;67.90;100141.59;4973825;28;20425;-89
2023/03/02 08:45:21;;;;;;;40.22;28.95;;;;;;;7.71;67.57;100092.56;4974003;28;20496;-88
2023/03/02 08:47:47;;;;;;;38.75;27.80;;;;;;;7.49;67.16;100055.19;4973760;28;20062;-87
2023/03/02 08:50:12;;;;;;;42.63;30.05;;;;;;;7.61;67.55;100071.59;4973478;28;20038;-88
2023/03/02 08:52:38;;;;;;;43.45;30.77;;;;;;;8.10;67.57;100137.88;4973514;28;20457;-88
2023/03/02 08:55:04;;;;;;;41.78;27.67;;;;;;;7.92;67.92;100115.00;4981998;28;20473;-90
2023/03/02 08:57:29;;;;;;;44.17;31.70;;;;;;;7.87;67.53;100098.84;4987434;28;20043;-88
2023/03/02 08:59:54;;;;;;;44.78;30.50;;;;;;;7.96;67.69;100132.13;5007116;28;20026;-86
2023/03/02 09:02:20;;;;;;;48.17;31.63;;;;;;;5.75;67.56;99764.50;5012796;28;20118;-90
2023/03/02 09:04:45;;;;;;;50.13;34.13;;;;;;;7.83;67.51;100107.16;4998246;28;20064;-90
2023/03/02 09:07:11;;;;;;;45.72;30.15;;;;;;;7.71;67.92;100061.84;4983189;28;20034;-89
2023/03/02 09:09:36;;;;;;;42.42;30.23;;;;;;;7.74;67.54;100073.88;4983675;28;20033;-91
2023/03/02 09:12:01;;;;;;;48.22;32.10;;;;;;;6.96;67.28;99936.81;4980282;28;20031;-90
2023/03/02 09:14:27;;;;;;;44.10;31.30;;;;;;;7.36;67.01;99996.06;4994200;28;20142;-90
2023/03/02 09:16:53;;;;;;;47.17;31.13;;;;;;;7.73;67.47;100088.00;4992557;28;20227;-90
2023/03/02 09:19:19;;;;;;;44.13;31.50;;;;;;;8.36;67.40;100156.47;4992973;28;20109;-90
2023/03/02 09:21:44;;;;;;;44.83;30.17;;;;;;;7.40;67.42;100000.03;4991053;28;20037;-90
2023/03/02 09:24:10;;;;;;;45.15;30.02;;;;;;;8.31;67.72;100140.25;4993089;28;20531;-90
2023/03/02 09:26:37;;;;;;;46.67;31.88;;;;;;;7.69;67.37;100018.28;4981829;28;20083;-88
2023/03/02 09:29:02;;;;;;;47.42;30.40;;;;;;;8.45;67.61;100129.25;4973887;28;20040;-91
2023/03/02 09:31:28;;;;;;;52.08;30.65;;;;;;;8.09;67.28;100087.06;4971053;28;20421;-89
2023/03/02 09:33:55;;;;;;;47.63;29.98;;;;;;;7.65;66.90;100005.44;4970947;28;20419;-90
2023/03/02 09:36:23;;;;;;;50.97;30.73;;;;;;;7.65;66.76;100000.19;4970955;28;20531;-91
2023/03/02 09:38:48;;;;;;;50.30;31.05;;;;;;;7.65;67.24;100021.22;4970768;28;20153;-91
2023/03/02 09:41:20;;;;;;;42.35;29.63;;;;;;;8.40;67.08;100129.69;4970874;28;20573;-91
2023/03/02 09:43:48;;;;;;;42.67;30.65;;;;;;;8.42;67.12;100130.38;4977254;28;20117;-91
2023/03/02 09:46:20;;;;;;;46.67;29.13;;;;;;;8.41;67.46;100131.34;4984739;28;20818;-90
2023/03/02 09:49:24;;;;;;;50.20;30.83;;;;;;;8.43;67.42;100134.66;4992635;28;20475;-91
2023/03/02 09:52:10;;;;;;;52.85;31.75;;;;;;;8.47;67.01;100138.66;4992181;28;20105;-89
2023/03/02 09:54:36;;;;;;;40.15;27.80;;;;;;;7.97;66.89;100047.03;4991277;28;20057;-91
2023/03/02 09:57:18;;;;;;;39.40;27.77;;;;;;;8.31;66.99;100113.97;4977464;28;20030;-90
2023/03/02 09:59:50;;;;;;;41.78;29.75;;;;;;;8.46;66.94;100136.16;4980287;28;20034;-88
2023/03/02 10:02:34;;;;;;;48.15;31.95;;;;;;;7.82;66.70;100032.72;4992001;28;20038;-88
2023/03/02 10:05:03;;;;;;;55.00;33.95;;;;;;;8.49;67.19;100133.25;5003479;28;20029;-90
2023/03/02 10:07:31;;;;;;;54.35;34.78;;;;;;;8.53;66.51;100132.78;4983675;28;20025;-89
2023/03/02 10:10:09;;;;;;;38.80;27.27;;;;;;;8.56;66.17;100129.84;4990029;28;20037;-88
2023/03/02 10:12:40;;;;;;;36.03;24.77;;;;;;;8.54;66.47;100126.53;4990228;28;20423;-89
2023/03/02 10:15:20;;;;;;;29.58;21.33;;;;;;;8.52;66.38;100128.50;4993587;28;20053;-88
2023/03/02 10:18:12;;;;;;;27.15;22.25;;;;;;;8.49;66.18;100114.81;5011431;28;20075;-89
2023/03/02 10:21:02;;;;;;;23.93;19.43;;;;;;;8.03;66.30;100058.75;5001640;28;20455;-88
2023/03/02 10:23:37;;;;;;;25.42;20.45;;;;;;;8.57;66.63;100120.16;4970829;28;20294;-89
2023/03/02 10:26:18;;;;;;;26.05;21.35;;;;;;;7.97;65.79;100040.94;4993818;28;20033;-89
2023/03/02 10:28:51;;;;;;;25.67;21.05;;;;;;;8.38;66.07;100091.38;4972473;28;20105;-89
2023/03/02 10:31:25;;;;;;;30.15;22.88;;;;;;;8.56;66.00;100106.16;4972472;28;20058;-89
2023/03/02 10:33:51;;;;;;;34.28;27.35;;;;;;;8.59;66.19;100107.66;4970943;28;20050;-89
2023/03/02 10:36:28;;;;;;;34.35;26.25;;;;;;;8.57;65.91;100102.56;4985206;28;20063;-88
2023/03/02 10:38:56;;;;;;;33.60;25.92;;;;;;;8.34;65.92;100067.16;4992761;28;20034;-88
2023/03/02 10:42:20;;;;;;;31.02;22.90;;;;;;;7.91;65.98;100002.09;4991566;28;20511;-88
2023/03/02 10:44:51;;;;;;;24.80;21.90;;;;;;;8.41;66.10;100106.84;4954165;28;20039;-87
2023/03/02 10:47:22;;;;;;;27.27;23.58;;;;;;;7.94;65.82;100000.00;4951452;28;20699;-87
2023/03/02 10:49:48;;;;;;;30.33;24.58;;;;;;;8.38;65.95;100065.88;4961928;28;20129;-88
2023/03/02 10:52:22;;;;;;;27.25;22.70;;;;;;;8.67;65.83;100091.94;4978307;28;20113;-88
2023/03/02 10:54:48;;;;;;;26.08;22.33;;;;;;;8.36;65.98;100038.88;4991587;28;20030;-87
2023/03/02 10:57:29;;;;;;;27.48;22.48;;;;;;;8.74;65.47;100087.72;4980028;28;20042;-88
2023/03/02 11:00:13;;;;;;;26.27;21.80;;;;;;;7.99;65.31;99970.63;4973751;28;20034;-89
2023/03/02 11:02:54;;;;;;;31.25;24.83;;;;;;;8.47;65.28;100035.19;5009713;28;20452;-88
2023/03/02 11:05:36;;;;;;;31.65;25.70;;;;;;;8.26;65.05;100015.25;5007437;28;20045;-88
2023/03/02 11:08:08;;;;;;;39.33;28.75;;;;;;;8.78;65.25;100081.16;4979008;28;20021;-88
2023/03/02 11:10:38;;;;;;;53.92;31.77;;;;;;;8.79;65.28;100082.81;4992322;28;20527;-87
2023/03/02 11:13:17;;;;;;;46.97;32.42;;;;;;;8.79;65.38;100076.72;4991851;28;20522;-89
2023/03/02 11:15:46;;;;;;;51.05;33.55;;;;;;;8.42;65.02;100034.81;5007749;28;20030;-89
2023/03/02 11:18:24;;;;;;;46.88;28.92;;;;;;;8.76;64.98;100075.22;4975298;28;20416;-89
2023/03/02 11:20:53;;;;;;;47.67;31.80;;;;;;;8.74;65.26;100077.19;4975713;28;20038;-88
2023/03/02 11:23:44;;;;;;;54.35;34.85;;;;;;;8.78;65.26;100070.63;4988876;28;20428;-89
2023/03/02 11:26:38;;;;;;;66.07;39.75;;;;;;;8.82;65.03;100066.72;4982962;28;20496;-87
2023/03/02 11:29:08;;;;;;;67.53;41.17;;;;;;;7.58;65.03;99866.91;4985281;28;20030;-88